Orlando, Florida
Traffic Map
Current Weather Conditions
Orlando, Florida
Clear
Clear
60°
Feels Like: 60°
Wind Chill: 60° Ceiling: Unl
Heat Index: 60° Visibility: 10mi
Dew Point: 41° Wind: 0mph
Humidity: 49% Direction: ° ()
Pressure: 30.3in Gusts: 0mph
Raw Report DataKORL 121653Z 00000KT 10SM CLR 16/05 A3030 RMK AO2 SLP266 T01560050
Traffic Incident Summary
Active as of:
Severity:
Category:
InformationThere was an issue retrieving the traffic information for this location. Please try a different location or try again shortly.
Advertisements